Time;durP1;ratioP1;P1;durP2;ratioP2;P2;SDS_P1;SDS_P2;PMS_P1;PMS_P2;Temp;Humidity;BMP_temperature;BMP_pressure;BME280_temperature;BME280_humidity;BME280_pressure;Samples;Min_cycle;Max_cycle;Signal;HPM_P1;HPM_P2
2023/02/18 00:00:22;;;;;;;15.35;4.20;;;7.40;99.90;;;;;;5000404;28;20104;-70
2023/02/18 00:02:48;;;;;;;16.85;4.25;;;7.40;99.90;;;;;;5018336;28;20594;-70
2023/02/18 00:05:15;;;;;;;20.30;3.80;;;7.40;99.90;;;;;;5012898;28;20552;-70
2023/02/18 00:07:41;;;;;;;19.23;4.47;;;7.50;99.90;;;;;;4999130;28;20041;-70
2023/02/18 00:10:10;;;;;;;15.45;4.50;;;7.50;99.90;;;;;;5013107;28;20046;-70
2023/02/18 00:12:36;;;;;;;17.05;5.05;;;7.50;99.90;;;;;;5021655;28;20120;-70
2023/02/18 00:15:03;;;;;;;17.75;3.88;;;7.60;99.90;;;;;;4999641;28;20516;-70
2023/02/18 00:17:29;;;;;;;18.20;4.65;;;7.60;99.90;;;;;;4996012;28;20065;-69
2023/02/18 00:19:56;;;;;;;15.80;4.00;;;7.60;99.90;;;;;;5000798;28;20122;-69
2023/02/18 00:22:22;;;;;;;15.60;4.25;;;7.60;99.90;;;;;;4998536;28;20045;-69
2023/02/18 00:24:48;;;;;;;17.88;4.35;;;7.60;99.90;;;;;;5027807;28;20053;-69
2023/02/18 00:27:14;;;;;;;13.80;3.97;;;7.70;99.90;;;;;;4984876;28;20389;-70
2023/02/18 00:29:40;;;;;;;15.60;3.88;;;7.60;99.90;;;;;;5020399;28;20515;-69
2023/02/18 00:32:06;;;;;;;18.38;4.32;;;7.60;99.90;;;;;;4991683;28;20049;-69
2023/02/18 00:34:32;;;;;;;17.88;4.25;;;7.60;99.90;;;;;;5005093;28;20045;-69
2023/02/18 00:36:58;;;;;;;17.63;4.60;;;7.50;99.90;;;;;;5017648;28;20492;-70
2023/02/18 00:39:24;;;;;;;17.40;4.20;;;7.60;99.90;;;;;;5021755;28;20052;-70
2023/02/18 00:41:56;;;;;;;20.90;4.60;;;7.60;99.90;;;;;;4998238;28;20064;-70
2023/02/18 00:44:22;;;;;;;17.30;4.20;;;7.60;99.90;;;;;;5029243;28;20055;-69
2023/02/18 00:46:48;;;;;;;13.98;3.88;;;7.60;99.90;;;;;;5033471;28;20076;-68
2023/02/18 00:49:18;;;;;;;11.68;3.55;;;7.60;99.90;;;;;;5004592;28;20057;-71
2023/02/18 00:51:43;;;;;;;18.83;4.47;;;7.60;99.90;;;;;;5002382;28;20052;-70
2023/02/18 00:54:09;;;;;;;16.42;4.25;;;7.60;99.90;;;;;;5017294;28;20304;-70
2023/02/18 00:56:35;;;;;;;19.40;4.35;;;7.60;99.90;;;;;;5001588;28;20033;-73
2023/02/18 00:59:01;;;;;;;19.45;4.07;;;7.60;99.90;;;;;;5014798;28;20050;-72
2023/02/18 01:01:27;;;;;;;18.38;4.30;;;7.60;99.90;;;;;;4995167;28;20041;-72
2023/02/18 01:03:53;;;;;;;17.92;4.93;;;7.60;99.90;;;;;;4990161;28;20437;-72
2023/02/18 01:06:21;;;;;;;17.60;4.97;;;7.60;99.90;;;;;;5003789;28;20528;-73
2023/02/18 01:08:46;;;;;;;17.40;4.80;;;7.60;99.90;;;;;;5014505;28;20060;-71
2023/02/18 01:11:13;;;;;;;19.25;5.43;;;7.70;99.90;;;;;;5006483;28;20064;-71
2023/02/18 01:13:40;;;;;;;19.85;5.95;;;7.70;99.90;;;;;;4979079;28;20049;-73
2023/02/18 01:16:06;;;;;;;20.88;5.82;;;7.60;99.90;;;;;;5008035;28;20100;-73
2023/02/18 01:18:32;;;;;;;20.77;5.72;;;7.70;99.90;;;;;;5006794;28;20508;-70
2023/02/18 01:20:58;;;;;;;15.95;6.35;;;7.60;99.90;;;;;;5013586;28;20876;-70
2023/02/18 01:23:27;;;;;;;18.15;5.88;;;7.70;99.90;;;;;;4980718;28;20115;-71
2023/02/18 01:25:53;;;;;;;18.25;6.43;;;7.70;99.90;;;;;;4999733;28;20504;-70
2023/02/18 01:28:23;;;;;;;19.92;7.35;;;7.70;99.90;;;;;;5024375;28;20124;-70
2023/02/18 01:30:49;;;;;;;19.98;7.97;;;7.70;99.90;;;;;;4990227;28;20727;-70
2023/02/18 01:33:15;;;;;;;22.42;9.40;;;7.70;99.90;;;;;;5024880;28;20049;-70
2023/02/18 01:35:41;;;;;;;23.65;9.07;;;7.70;99.90;;;;;;5013922;28;20166;-70
2023/02/18 01:38:07;;;;;;;21.67;9.95;;;7.60;99.90;;;;;;5021186;28;20075;-70
2023/02/18 01:40:33;;;;;;;24.70;9.65;;;7.70;99.90;;;;;;5005286;28;20045;-71
2023/02/18 01:42:59;;;;;;;24.08;10.48;;;7.70;99.90;;;;;;5016238;28;20136;-69
2023/02/18 01:45:36;;;;;;;25.80;9.82;;;7.70;99.90;;;;;;5022583;28;20133;-69
2023/02/18 01:48:23;;;;;;;24.27;10.00;;;7.70;99.90;;;;;;4992844;28;20163;-69
2023/02/18 01:50:55;;;;;;;26.58;11.55;;;7.70;99.90;;;;;;5021177;28;20591;-69
2023/02/18 01:53:28;;;;;;;30.45;11.80;;;7.70;99.90;;;;;;5011870;28;20064;-71
2023/02/18 01:55:55;;;;;;;22.52;11.50;;;7.70;99.90;;;;;;5018341;28;20149;-70
2023/02/18 01:58:21;;;;;;;25.50;12.50;;;7.70;99.90;;;;;;5011413;28;20042;-71
2023/02/18 02:00:46;;;;;;;26.08;13.13;;;7.80;99.90;;;;;;5013522;28;20176;-70
2023/02/18 02:03:13;;;;;;;28.88;13.50;;;7.80;99.90;;;;;;4995251;28;20050;-70
2023/02/18 02:05:39;;;;;;;28.48;15.48;;;7.80;99.90;;;;;;5003100;28;20507;-70
2023/02/18 02:08:05;;;;;;;24.90;14.60;;;7.80;99.90;;;;;;5008366;28;20049;-71
2023/02/18 02:11:15;;;;;;;29.05;15.95;;;7.90;99.90;;;;;;5015886;28;20046;-71
2023/02/18 02:13:47;;;;;;;27.77;16.08;;;7.90;99.90;;;;;;5010830;28;20085;-71
2023/02/18 02:16:36;;;;;;;29.73;15.95;;;7.90;99.90;;;;;;5016858;28;20045;-71
2023/02/18 02:19:16;;;;;;;29.30;17.40;;;8.00;99.90;;;;;;5011851;28;20124;-71
2023/02/18 02:22:16;;;;;;;30.20;17.77;;;8.00;99.90;;;;;;5012410;28;20545;-71
2023/02/18 02:25:02;;;;;;;28.65;17.42;;;8.00;99.90;;;;;;5027840;28;20651;-73
2023/02/18 02:27:39;;;;;;;28.35;17.48;;;8.00;99.90;;;;;;5016238;28;20046;-73
2023/02/18 02:30:20;;;;;;;27.60;17.45;;;8.00;99.90;;;;;;5015586;28;20136;-73
2023/02/18 02:33:17;;;;;;;27.67;16.83;;;8.10;99.90;;;;;;5018091;28;20099;-73
2023/02/18 02:36:09;;;;;;;28.25;16.05;;;8.10;99.90;;;;;;5012294;28;20077;-73
2023/02/18 02:39:03;;;;;;;32.58;16.27;;;8.10;99.90;;;;;;5010884;28;20076;-73
2023/02/18 02:41:38;;;;;;;25.48;14.93;;;8.20;99.90;;;;;;4994081;28;20164;-73
2023/02/18 02:44:10;;;;;;;28.20;14.98;;;8.10;99.90;;;;;;5013876;28;20049;-71
2023/02/18 02:46:43;;;;;;;25.58;15.00;;;8.20;99.90;;;;;;5023456;28;20512;-71
2023/02/18 02:49:28;;;;;;;28.58;15.73;;;8.20;99.90;;;;;;5035339;28;20053;-71
2023/02/18 02:52:22;;;;;;;23.77;13.75;;;8.20;99.90;;;;;;5020590;28;20069;-71
2023/02/18 02:54:47;;;;;;;24.48;14.25;;;8.20;99.90;;;;;;5012376;28;20057;-71
2023/02/18 02:57:16;;;;;;;27.00;12.85;;;8.30;99.90;;;;;;5002453;28;20404;-71
2023/02/18 02:59:50;;;;;;;25.10;13.15;;;8.30;99.90;;;;;;5014693;28;20077;-71
2023/02/18 03:02:15;;;;;;;22.00;12.30;;;8.30;99.90;;;;;;5011968;28;20054;-71
2023/02/18 03:05:18;;;;;;;23.20;12.18;;;8.30;99.90;;;;;;5017932;28;20048;-72
2023/02/18 03:08:03;;;;;;;24.00;11.65;;;8.30;99.90;;;;;;5017050;28;20510;-71
2023/02/18 03:10:31;;;;;;;17.15;10.57;;;8.30;99.90;;;;;;5021264;28;20068;-72
2023/02/18 03:13:09;;;;;;;18.67;9.77;;;8.30;99.90;;;;;;5015862;28;20496;-71
2023/02/18 03:15:59;;;;;;;18.25;10.07;;;8.30;99.90;;;;;;5018392;28;20563;-72
2023/02/18 03:18:34;;;;;;;18.00;9.32;;;8.40;99.90;;;;;;5019306;28;20069;-71
2023/02/18 03:21:05;;;;;;;17.50;8.52;;;8.40;99.90;;;;;;5014169;28;20046;-71
2023/02/18 03:23:57;;;;;;;20.40;9.48;;;8.40;99.90;;;;;;5012205;28;20057;-71
2023/02/18 03:26:25;;;;;;;16.48;8.80;;;8.40;99.90;;;;;;4986210;28;20060;-71
2023/02/18 03:28:57;;;;;;;17.60;9.35;;;8.40;99.90;;;;;;5005887;28;20045;-71
2023/02/18 03:31:27;;;;;;;22.05;12.82;;;8.40;99.90;;;;;;5031535;28;20125;-71
2023/02/18 03:33:55;;;;;;;;;;;8.50;99.90;;;;;;5020883;28;20062;-72
2023/02/18 03:36:22;;;;;;;28.85;14.93;;;8.50;99.90;;;;;;5003682;28;19927;-71
2023/02/18 03:38:55;;;;;;;28.05;17.63;;;8.50;99.90;;;;;;5017673;28;20045;-71
2023/02/18 03:41:21;;;;;;;30.05;16.27;;;8.60;99.90;;;;;;5013172;28;20396;-73
2023/02/18 03:43:59;;;;;;;30.90;17.83;;;8.60;99.90;;;;;;5020436;28;21457;-73
2023/02/18 03:46:27;;;;;;;35.08;19.58;;;8.70;99.90;;;;;;5008497;28;20065;-73
2023/02/18 03:48:53;;;;;;;38.20;23.90;;;8.70;99.90;;;;;;4990636;28;20041;-73
2023/02/18 03:51:19;;;;;;;39.15;25.33;;;8.70;99.90;;;;;;5016349;28;20041;-73
2023/02/18 03:53:45;;;;;;;45.75;27.38;;;8.80;99.90;;;;;;4993311;28;20535;-73
2023/02/18 03:56:11;;;;;;;43.38;28.20;;;8.80;99.90;;;;;;5020671;28;20544;-73
2023/02/18 03:58:37;;;;;;;48.85;31.52;;;8.80;99.90;;;;;;5018329;28;20141;-73
2023/02/18 04:01:05;;;;;;;56.78;34.00;;;8.90;99.90;;;;;;5003764;28;20417;-73
2023/02/18 04:03:30;;;;;;;56.15;36.60;;;8.90;99.90;;;;;;5011650;28;20052;-71
2023/02/18 04:05:56;;;;;;;56.72;37.28;;;8.90;99.90;;;;;;5003522;28;20057;-71
2023/02/18 04:08:23;;;;;;;60.88;38.38;;;8.90;99.90;;;;;;5012593;28;20061;-72
2023/02/18 04:10:49;;;;;;;58.28;39.17;;;9.00;99.90;;;;;;5005963;28;20095;-72
2023/02/18 04:13:16;;;;;;;60.33;40.70;;;9.00;99.90;;;;;;5012069;28;20299;-72
2023/02/18 04:15:45;;;;;;;58.60;40.25;;;9.00;99.90;;;;;;4998923;28;20543;-72
2023/02/18 04:18:11;;;;;;;63.55;41.13;;;9.00;99.90;;;;;;4987204;28;20377;-71
2023/02/18 04:20:37;;;;;;;59.53;39.80;;;9.00;99.90;;;;;;5003542;28;20104;-72
2023/02/18 04:23:03;;;;;;;61.83;40.13;;;9.10;99.90;;;;;;5014199;28;20053;-72
2023/02/18 04:25:30;;;;;;;61.92;40.42;;;9.10;99.90;;;;;;4972018;28;20094;-72
2023/02/18 04:27:55;;;;;;;62.47;41.72;;;9.10;99.90;;;;;;5014692;28;20049;-72
2023/02/18 04:30:21;;;;;;;68.45;41.97;;;9.10;99.90;;;;;;5019450;28;20049;-72
2023/02/18 04:32:47;;;;;;;64.93;42.58;;;9.10;99.90;;;;;;5015938;28;20045;-72
2023/02/18 04:35:13;;;;;;;64.68;41.47;;;9.20;99.90;;;;;;5020399;28;20083;-72
2023/02/18 04:37:39;;;;;;;70.82;44.58;;;9.20;99.90;;;;;;5001054;28;20041;-71
2023/02/18 04:40:06;;;;;;;68.22;43.08;;;9.20;99.90;;;;;;5023974;28;20105;-72
2023/02/18 04:42:31;;;;;;;73.20;43.80;;;9.20;99.90;;;;;;5035654;28;21162;-72
2023/02/18 04:44:58;;;;;;;74.63;44.75;;;9.20;99.90;;;;;;5011412;28;20049;-72
2023/02/18 04:47:27;;;;;;;68.75;43.92;;;9.20;99.90;;;;;;5010388;28;20048;-72
2023/02/18 04:49:53;;;;;;;70.18;45.35;;;9.20;99.90;;;;;;5002107;28;20057;-71
2023/02/18 04:52:19;;;;;;;72.38;45.25;;;9.20;99.90;;;;;;5004568;28;20041;-71
2023/02/18 04:54:45;;;;;;;80.90;46.75;;;9.20;99.90;;;;;;4992511;28;20877;-73
2023/02/18 04:57:11;;;;;;;83.00;48.13;;;9.20;99.90;;;;;;5000894;28;20049;-72
2023/02/18 04:59:36;;;;;;;82.00;47.22;;;9.30;99.90;;;;;;5007208;28;20054;-72
2023/02/18 05:02:08;;;;;;;90.82;50.30;;;9.20;99.90;;;;;;5016278;28;20061;-73
2023/02/18 05:04:34;;;;;;;103.43;51.67;;;9.20;99.90;;;;;;5028245;28;20056;-73
2023/02/18 05:07:00;;;;;;;102.78;53.10;;;9.20;99.90;;;;;;4997240;28;20057;-73
2023/02/18 05:09:26;;;;;;;108.22;52.90;;;9.20;99.90;;;;;;5013770;28;20034;-73
2023/02/18 05:11:52;;;;;;;113.65;55.30;;;9.20;99.90;;;;;;5006281;28;20053;-72
2023/02/18 05:14:18;;;;;;;107.15;51.88;;;9.20;99.90;;;;;;5002877;28;20053;-73
2023/02/18 05:16:44;;;;;;;114.00;53.22;;;9.20;99.90;;;;;;4991715;28;20068;-73
2023/02/18 05:19:19;;;;;;;115.55;54.00;;;9.20;99.90;;;;;;5032356;28;20045;-73
2023/02/18 05:21:45;;;;;;;112.00;52.50;;;9.20;99.90;;;;;;5007114;28;20231;-73
2023/02/18 05:24:13;;;;;;;101.70;49.47;;;9.20;99.90;;;;;;5022851;28;20515;-72
2023/02/18 05:26:42;;;;;;;115.90;52.70;;;9.20;99.90;;;;;;4973901;28;20510;-72
2023/02/18 05:29:08;;;;;;;132.63;53.10;;;9.20;99.90;;;;;;5027744;28;20179;-73
2023/02/18 05:31:34;;;;;;;165.75;55.22;;;9.20;99.90;;;;;;5036563;28;20414;-73
2023/02/18 05:33:59;;;;;;;151.55;55.15;;;9.20;99.90;;;;;;5010270;28;20511;-73
2023/02/18 05:36:25;;;;;;;134.65;52.28;;;9.20;99.90;;;;;;4989696;28;20041;-73
2023/02/18 05:38:55;;;;;;;119.25;48.25;;;9.30;99.90;;;;;;5021784;28;20469;-72
2023/02/18 05:41:21;;;;;;;157.98;51.72;;;9.30;99.90;;;;;;5006564;28;20049;-72
2023/02/18 05:46:33;;;;;;;114.68;44.42;;;9.30;99.90;;;;;;5007952;28;20137;-73
2023/02/18 05:48:59;;;;;;;114.95;42.30;;;9.30;99.90;;;;;;5022784;28;20128;-72
2023/02/18 05:51:28;;;;;;;105.10;39.85;;;9.30;99.90;;;;;;5023309;28;20045;-72
2023/02/18 05:53:56;;;;;;;94.32;35.45;;;9.40;99.90;;;;;;4994280;28;20049;-72
2023/02/18 05:56:22;;;;;;;99.50;37.03;;;9.40;99.90;;;;;;5015917;28;20248;-73
2023/02/18 05:58:48;;;;;;;94.97;34.33;;;9.40;99.90;;;;;;5024394;28;20107;-73
2023/02/18 06:01:14;;;;;;;90.00;33.00;;;9.50;99.90;;;;;;5019204;28;20475;-73
2023/02/18 06:03:40;;;;;;;83.80;30.88;;;9.50;99.90;;;;;;5023479;28;20353;-73
2023/02/18 06:06:06;;;;;;;58.53;24.73;;;9.50;99.90;;;;;;4990141;28;20572;-73
2023/02/18 06:08:37;;;;;;;63.75;26.52;;;9.50;99.90;;;;;;5026512;28;20096;-73
2023/02/18 06:11:03;;;;;;;62.10;24.50;;;9.50;99.90;;;;;;4993775;28;20045;-72
2023/02/18 06:13:28;;;;;;;56.55;22.98;;;9.50;99.90;;;;;;5001982;28;20044;-72
2023/02/18 06:15:57;;;;;;;53.00;21.80;;;9.50;99.90;;;;;;5009726;28;20045;-72
2023/02/18 06:18:24;;;;;;;53.75;20.70;;;9.50;99.90;;;;;;5014045;28;20158;-73
2023/02/18 06:20:53;;;;;;;42.05;18.52;;;9.50;99.90;;;;;;5016593;28;20132;-74
2023/02/18 06:23:18;;;;;;;42.50;16.58;;;9.50;99.90;;;;;;5001674;28;20208;-73
2023/02/18 06:25:47;;;;;;;34.92;15.50;;;9.50;99.90;;;;;;5005665;28;20433;-74
2023/02/18 06:28:12;;;;;;;35.03;14.43;;;9.60;99.90;;;;;;5006453;28;20054;-73
2023/02/18 06:30:38;;;;;;;33.38;15.68;;;9.60;99.90;;;;;;5003789;28;20075;-73
2023/02/18 06:33:04;;;;;;;26.98;13.73;;;9.60;99.90;;;;;;5015785;28;20045;-73
2023/02/18 06:35:30;;;;;;;25.58;12.68;;;9.60;99.90;;;;;;5010758;28;20045;-73
2023/02/18 06:37:56;;;;;;;26.73;12.57;;;9.60;99.90;;;;;;4992846;28;20057;-74
2023/02/18 06:40:21;;;;;;;23.02;12.13;;;9.70;99.90;;;;;;5016451;28;20061;-73
2023/02/18 06:42:47;;;;;;;26.30;13.13;;;9.70;99.90;;;;;;5023412;28;20132;-73
2023/02/18 06:45:16;;;;;;;20.45;11.60;;;9.70;99.90;;;;;;5026361;28;20049;-74
2023/02/18 06:47:42;;;;;;;20.88;13.38;;;9.70;99.90;;;;;;5026084;28;20049;-73
2023/02/18 06:50:08;;;;;;;22.27;13.85;;;9.80;99.90;;;;;;4990617;28;20687;-73
2023/02/18 06:52:36;;;;;;;23.60;15.43;;;9.80;99.90;;;;;;5019662;28;20071;-73
2023/02/18 06:55:04;;;;;;;29.50;18.85;;;9.90;99.90;;;;;;4989687;28;20081;-74
2023/02/18 06:57:30;;;;;;;27.92;19.15;;;9.90;99.90;;;;;;5013683;28;20450;-74
2023/02/18 06:59:56;;;;;;;28.92;19.98;;;9.90;99.90;;;;;;5017680;28;20046;-73
2023/02/18 07:02:22;;;;;;;29.20;20.58;;;9.90;99.90;;;;;;5001306;28;20150;-73
2023/02/18 07:04:48;;;;;;;30.25;21.33;;;10.00;99.90;;;;;;5029129;28;20501;-73
2023/02/18 07:07:13;;;;;;;30.42;23.25;;;9.90;99.90;;;;;;4994556;28;20469;-73
2023/02/18 07:09:39;;;;;;;36.35;24.55;;;10.00;99.90;;;;;;5020308;28;20510;-73
2023/02/18 07:12:05;;;;;;;32.50;23.17;;;10.00;99.90;;;;;;5032853;28;20084;-74
2023/02/18 07:14:31;;;;;;;31.67;23.27;;;10.00;99.90;;;;;;5024074;28;20442;-74
2023/02/18 07:16:57;;;;;;;31.90;24.35;;;10.00;99.90;;;;;;5025866;28;20107;-73
2023/02/18 07:19:23;;;;;;;36.60;25.73;;;10.00;99.90;;;;;;5030307;28;20064;-75
2023/02/18 07:21:49;;;;;;;35.25;25.77;;;10.10;99.90;;;;;;5008807;28;20077;-73
2023/02/18 07:24:15;;;;;;;35.35;25.58;;;10.10;99.90;;;;;;5004346;28;20052;-73
2023/02/18 07:26:41;;;;;;;34.67;25.55;;;10.10;99.90;;;;;;5012842;28;20038;-74
2023/02/18 07:29:07;;;;;;;34.65;24.85;;;10.10;99.90;;;;;;5010364;28;20453;-74
2023/02/18 07:31:32;;;;;;;32.28;25.27;;;10.20;99.90;;;;;;5000186;28;20445;-74
2023/02/18 07:33:58;;;;;;;37.45;26.30;;;10.20;99.90;;;;;;5011733;28;20072;-74
2023/02/18 07:36:27;;;;;;;32.30;24.55;;;10.20;99.90;;;;;;4995647;28;20100;-75
2023/02/18 07:38:53;;;;;;;28.02;22.50;;;10.20;99.90;;;;;;5002444;28;20057;-74
2023/02/18 07:41:21;;;;;;;30.80;23.05;;;10.20;99.90;;;;;;4978556;28;20555;-74
2023/02/18 07:43:47;;;;;;;30.90;23.15;;;10.20;99.90;;;;;;5015415;28;20691;-74
2023/02/18 07:46:13;;;;;;;31.13;23.20;;;10.20;99.90;;;;;;4997356;28;20066;-70
2023/02/18 07:48:39;;;;;;;27.30;21.40;;;10.20;99.90;;;;;;5016620;28;20057;-70
2023/02/18 07:51:07;;;;;;;29.83;21.92;;;10.20;99.90;;;;;;5009677;28;20060;-69
2023/02/18 07:53:34;;;;;;;32.88;22.25;;;10.10;99.90;;;;;;5027179;28;20095;-69
2023/02/18 07:56:01;;;;;;;29.02;21.50;;;10.10;99.90;;;;;;5013574;28;20050;-70
2023/02/18 07:58:30;;;;;;;26.45;21.00;;;10.10;99.90;;;;;;5018896;28;20096;-70
2023/02/18 08:00:56;;;;;;;28.90;20.50;;;10.10;99.90;;;;;;5018003;28;20046;-69
2023/02/18 08:03:30;;;;;;;28.23;19.95;;;10.10;99.90;;;;;;5012080;28;20137;-70
2023/02/18 08:05:56;;;;;;;27.73;19.33;;;10.10;99.90;;;;;;4988431;28;20124;-69
2023/02/18 08:08:25;;;;;;;26.15;18.42;;;10.10;99.90;;;;;;5014988;28;20042;-70
2023/02/18 08:10:52;;;;;;;30.00;19.75;;;10.10;99.90;;;;;;4996416;28;20057;-69
2023/02/18 08:13:18;;;;;;;25.00;19.75;;;10.10;99.90;;;;;;5012700;28;20053;-70
2023/02/18 08:15:44;;;;;;;25.75;18.30;;;10.10;99.90;;;;;;4996018;28;20041;-69
2023/02/18 08:18:27;;;;;;;29.00;19.50;;;10.00;99.90;;;;;;5001473;28;20049;-70
2023/02/18 08:20:53;;;;;;;26.80;17.70;;;10.10;99.90;;;;;;5011787;28;20475;-71
2023/02/18 08:23:21;;;;;;;27.08;18.40;;;10.00;99.90;;;;;;4980419;28;20144;-73
2023/02/18 08:25:49;;;;;;;29.38;19.30;;;10.00;99.90;;;;;;5010117;28;20527;-70
2023/02/18 08:28:15;;;;;;;27.42;19.55;;;10.00;99.90;;;;;;5015473;28;20057;-69
2023/02/18 08:30:45;;;;;;;25.85;18.58;;;10.00;99.90;;;;;;5015084;28;20583;-70
2023/02/18 08:33:11;;;;;;;28.05;20.95;;;10.10;99.90;;;;;;5010506;28;20064;-70
2023/02/18 08:35:40;;;;;;;30.27;20.98;;;10.00;99.90;;;;;;4997426;28;20843;-68
2023/02/18 08:38:06;;;;;;;28.10;20.15;;;10.00;99.90;;;;;;5000104;28;20136;-69
2023/02/18 08:40:32;;;;;;;29.80;20.50;;;10.00;99.90;;;;;;5013900;28;20175;-70
2023/02/18 08:42:58;;;;;;;26.50;18.23;;;10.00;99.90;;;;;;5016846;28;20072;-69
2023/02/18 08:45:24;;;;;;;27.75;18.05;;;10.00;99.90;;;;;;4994210;28;20041;-70
2023/02/18 08:47:50;;;;;;;24.65;18.70;;;10.10;99.90;;;;;;5023273;28;20591;-69
2023/02/18 08:50:17;;;;;;;23.75;17.25;;;10.10;99.90;;;;;;4987085;28;20164;-69
2023/02/18 08:52:43;;;;;;;22.05;16.50;;;10.00;99.90;;;;;;5005247;28;20089;-69
2023/02/18 08:55:09;;;;;;;23.63;16.23;;;10.00;99.90;;;;;;5021143;28;20127;-70
2023/02/18 08:57:34;;;;;;;22.10;15.18;;;10.00;99.90;;;;;;5009849;28;20105;-74
2023/02/18 09:00:00;;;;;;;22.80;15.05;;;10.00;99.90;;;;;;5004666;28;20045;-74
2023/02/18 09:02:28;;;;;;;23.48;15.48;;;10.00;99.90;;;;;;5018779;28;20046;-70
2023/02/18 09:04:54;;;;;;;21.90;14.02;;;10.00;99.90;;;;;;4987772;28;20061;-73
2023/02/18 09:07:20;;;;;;;20.48;13.35;;;10.00;99.90;;;;;;4998663;28;20057;-74
2023/02/18 09:09:46;;;;;;;16.95;12.20;;;10.00;99.90;;;;;;5018762;28;20050;-70
2023/02/18 09:12:11;;;;;;;17.92;11.23;;;10.00;99.90;;;;;;5016279;28;20400;-70
2023/02/18 09:14:37;;;;;;;22.48;12.30;;;10.00;99.90;;;;;;4997101;28;20791;-70
2023/02/18 09:17:03;;;;;;;15.15;9.60;;;10.00;99.90;;;;;;4996961;28;20061;-70
2023/02/18 09:19:29;;;;;;;15.77;10.00;;;10.00;99.90;;;;;;5007294;28;20041;-75
2023/02/18 09:21:56;;;;;;;16.00;10.15;;;9.90;99.90;;;;;;5013906;28;20584;-75
2023/02/18 09:24:23;;;;;;;15.75;11.00;;;9.90;99.90;;;;;;5022004;28;20419;-74
2023/02/18 09:26:50;;;;;;;15.88;10.80;;;9.90;99.90;;;;;;5024390;28;20053;-73
2023/02/18 09:29:18;;;;;;;19.95;12.38;;;9.80;99.90;;;;;;5012573;28;20134;-69
2023/02/18 09:31:44;;;;;;;18.33;12.38;;;9.80;99.90;;;;;;5023026;28;20049;-69
2023/02/18 09:34:10;;;;;;;14.93;12.05;;;9.70;99.90;;;;;;5016766;28;20038;-69
2023/02/18 09:36:37;;;;;;;17.65;11.52;;;9.80;99.90;;;;;;5019019;28;20037;-75
2023/02/18 09:39:03;;;;;;;20.05;12.43;;;9.80;99.90;;;;;;5019217;28;20075;-69
2023/02/18 09:41:36;;;;;;;18.33;11.75;;;9.80;99.90;;;;;;5027813;28;20124;-69
2023/02/18 09:44:10;;;;;;;25.02;14.73;;;9.80;99.90;;;;;;5032294;28;20093;-74
2023/02/18 09:46:45;;;;;;;22.80;11.32;;;9.80;99.90;;;;;;5016084;28;20516;-75
2023/02/18 09:49:17;;;;;;;21.50;11.50;;;9.80;99.90;;;;;;5016299;28;20041;-69
2023/02/18 09:51:44;;;;;;;16.10;9.23;;;9.70;99.90;;;;;;5022727;28;20038;-70
2023/02/18 09:54:13;;;;;;;19.33;9.13;;;9.70;99.90;;;;;;5031237;28;20060;-70
2023/02/18 09:56:40;;;;;;;17.42;7.63;;;9.80;99.90;;;;;;5012846;28;20057;-75
2023/02/18 09:59:18;;;;;;;14.85;7.90;;;9.80;99.90;;;;;;5018425;28;20122;-73
2023/02/18 10:01:47;;;;;;;13.82;6.80;;;9.80;99.90;;;;;;5020466;28;20060;-74
2023/02/18 10:04:34;;;;;;;20.92;7.85;;;9.80;99.90;;;;;;5004259;28;20046;-69
2023/02/18 10:07:03;;;;;;;15.13;6.88;;;9.70;99.90;;;;;;5030530;28;20099;-69
2023/02/18 10:09:33;;;;;;;15.35;6.82;;;9.70;99.90;;;;;;5019366;28;20488;-69
2023/02/18 10:12:20;;;;;;;17.88;6.65;;;9.70;99.90;;;;;;5011003;28;20046;-74
2023/02/18 10:14:50;;;;;;;14.88;5.65;;;9.70;99.90;;;;;;5025924;28;20245;-75
2023/02/18 10:17:17;;;;;;;16.42;5.85;;;9.70;99.90;;;;;;5022243;28;20072;-73
2023/02/18 10:19:46;;;;;;;18.73;6.03;;;9.70;99.90;;;;;;5028065;28;20053;-74
2023/02/18 10:22:15;;;;;;;21.25;5.85;;;9.80;99.90;;;;;;5008928;28;20081;-69
2023/02/18 10:24:54;;;;;;;18.02;5.43;;;9.80;99.90;;;;;;5019406;28;20045;-70
2023/02/18 10:27:31;;;;;;;17.63;5.13;;;9.80;99.90;;;;;;5022948;28;20050;-69
2023/02/18 10:30:22;;;;;;;15.68;4.68;;;9.90;99.90;;;;;;5023022;28;20119;-70
2023/02/18 10:32:55;;;;;;;14.82;4.38;;;9.90;99.90;;;;;;5039094;28;20947;-70
2023/02/18 10:35:37;;;;;;;15.35;4.30;;;9.90;99.90;;;;;;5005775;28;20125;-69
2023/02/18 10:38:09;;;;;;;16.27;4.15;;;10.00;99.90;;;;;;5020421;28;20100;-74
2023/02/18 10:40:52;;;;;;;20.05;4.35;;;10.00;99.90;;;;;;5004220;28;20053;-74
2023/02/18 10:43:36;;;;;;;17.65;3.88;;;10.10;99.90;;;;;;5037972;28;20079;-73
2023/02/18 10:46:14;;;;;;;19.20;4.22;;;10.10;99.90;;;;;;5012010;28;20042;-74
2023/02/18 10:49:08;;;;;;;16.33;4.00;;;10.20;99.90;;;;;;5022792;28;20526;-76
2023/02/18 10:51:38;;;;;;;12.60;3.53;;;10.30;99.90;;;;;;5024401;28;20061;-74
2023/02/18 10:54:06;;;;;;;14.85;3.72;;;10.30;99.90;;;;;;5024614;28;20463;-73
2023/02/18 10:56:36;;;;;;;15.85;3.83;;;10.30;99.90;;;;;;5012312;28;20057;-74
2023/02/18 10:59:22;;;;;;;13.07;3.83;;;10.40;99.90;;;;;;5015524;28;20064;-73
2023/02/18 11:02:17;;;;;;;15.95;3.67;;;10.40;99.90;;;;;;5009279;28;20395;-73
2023/02/18 11:04:58;;;;;;;13.50;3.95;;;10.40;99.90;;;;;;5012521;28;20071;-74
2023/02/18 11:07:38;;;;;;;15.13;4.38;;;10.50;99.90;;;;;;5002662;28;20060;-74
2023/02/18 11:10:21;;;;;;;13.57;3.70;;;10.50;99.90;;;;;;5004958;28;20058;-74
2023/02/18 11:12:50;;;;;;;13.57;3.53;;;10.60;99.90;;;;;;5001589;28;20053;-73
2023/02/18 11:15:24;;;;;;;14.02;3.35;;;10.60;99.90;;;;;;5015345;28;20103;-73
2023/02/18 11:17:54;;;;;;;14.90;3.53;;;10.60;99.90;;;;;;5025189;28;20111;-73
2023/02/18 11:20:37;;;;;;;12.55;3.80;;;10.60;99.90;;;;;;5003110;28;20096;-73
2023/02/18 11:23:14;;;;;;;17.50;3.83;;;10.60;99.90;;;;;;5030139;28;20061;-73
2023/02/18 11:25:51;;;;;;;15.60;3.60;;;10.60;99.90;;;;;;5018975;28;20121;-73
2023/02/18 11:28:17;;;;;;;13.80;3.35;;;10.60;99.90;;;;;;5009198;28;20053;-74
2023/02/18 11:30:47;;;;;;;17.00;3.85;;;10.70;99.90;;;;;;5006088;28;20114;-73
2023/02/18 11:33:30;;;;;;;13.30;3.78;;;10.70;99.90;;;;;;5023212;28;20515;-73
2023/02/18 11:35:57;;;;;;;13.25;3.55;;;10.80;99.90;;;;;;5016033;28;20042;-74
2023/02/18 11:38:37;;;;;;;12.50;3.35;;;10.90;99.90;;;;;;5015888;28;20056;-74
2023/02/18 11:41:09;;;;;;;11.10;2.90;;;10.90;99.90;;;;;;4989485;28;20049;-74
2023/02/18 11:43:40;;;;;;;10.52;3.05;;;11.00;99.90;;;;;;5005609;28;20053;-74
2023/02/18 11:46:16;;;;;;;12.45;3.58;;;11.00;99.90;;;;;;4988426;28;20057;-74
2023/02/18 11:48:46;;;;;;;13.57;3.28;;;11.10;99.90;;;;;;5020524;28;20060;-73
2023/02/18 11:51:26;;;;;;;14.70;3.58;;;11.10;99.90;;;;;;5015618;28;20397;-74
2023/02/18 11:54:04;;;;;;;12.30;3.10;;;11.10;99.90;;;;;;5017328;28;20064;-73
2023/02/18 11:56:35;;;;;;;14.35;3.55;;;11.20;99.90;;;;;;5005440;28;20089;-74
2023/02/18 11:59:03;;;;;;;11.45;3.28;;;11.20;99.90;;;;;;4998630;28;20497;-73
2023/02/18 12:01:49;;;;;;;12.93;4.35;;;11.20;99.90;;;;;;4990725;28;20056;-73
2023/02/18 12:04:36;;;;;;;11.98;2.65;;;11.20;99.90;;;;;;5023602;28;20041;-73
2023/02/18 12:07:07;;;;;;;11.65;3.08;;;11.30;99.90;;;;;;5010005;28;20591;-73
2023/02/18 12:09:42;;;;;;;14.13;3.95;;;11.30;99.90;;;;;;5003719;28;20061;-73
2023/02/18 12:12:14;;;;;;;12.25;3.17;;;11.30;99.90;;;;;;5037384;28;20056;-73
2023/02/18 12:14:40;;;;;;;12.07;4.00;;;11.30;99.90;;;;;;5012061;28;20049;-73
2023/02/18 12:17:33;;;;;;;11.95;3.28;;;11.30;99.90;;;;;;4992180;28;20056;-72
2023/02/18 12:20:24;;;;;;;13.60;3.53;;;11.30;99.90;;;;;;5013757;28;20072;-74
2023/02/18 12:23:01;;;;;;;14.40;3.28;;;11.30;99.90;;;;;;5011071;28;20631;-73
2023/02/18 12:25:43;;;;;;;10.52;3.30;;;11.30;99.90;;;;;;5020289;28;20053;-73
2023/02/18 12:28:12;;;;;;;11.77;3.47;;;11.30;99.90;;;;;;5013354;28;20046;-72
2023/02/18 12:30:57;;;;;;;13.30;3.72;;;11.30;99.90;;;;;;5014400;28;20083;-72
2023/02/18 12:33:53;;;;;;;9.43;3.22;;;11.30;99.90;;;;;;5008059;28;20057;-73
2023/02/18 12:36:46;;;;;;;13.63;3.75;;;11.40;99.90;;;;;;5013216;28;20057;-72
2023/02/18 12:39:29;;;;;;;10.70;3.40;;;11.40;99.90;;;;;;5026540;28;20080;-72
2023/02/18 12:42:26;;;;;;;11.25;3.30;;;11.40;99.90;;;;;;5016037;28;20057;-70
2023/02/18 12:45:03;;;;;;;10.40;3.20;;;11.50;99.90;;;;;;5030605;28;20132;-72
2023/02/18 12:48:07;;;;;;;9.35;3.00;;;11.50;99.90;;;;;;5036733;28;20053;-74
2023/02/18 12:50:42;;;;;;;11.93;3.20;;;11.50;99.90;;;;;;5017208;28;20831;-72
2023/02/18 12:53:20;;;;;;;11.18;3.17;;;11.50;99.90;;;;;;5015842;28;20050;-71
2023/02/18 12:56:07;;;;;;;12.00;3.10;;;11.60;99.90;;;;;;5012340;28;20059;-71
2023/02/18 12:58:48;;;;;;;11.85;3.00;;;11.60;99.90;;;;;;5013807;28;20050;-71